createdAt,value
2023-02-01T00:00:00.138Z,92.4
2023-02-01T00:05:00.111Z,92.4
2023-02-01T00:10:00.130Z,92.3
2023-02-01T00:15:00.116Z,92.3
2023-02-01T00:20:00.142Z,92.3
2023-02-01T00:25:00.136Z,92.2
2023-02-01T00:30:00.113Z,92
2023-02-01T00:35:00.110Z,91.9
2023-02-01T00:40:00.182Z,91.9
2023-02-01T00:45:00.113Z,91.7
2023-02-01T00:50:00.115Z,91.5
2023-02-01T00:55:00.096Z,91.3
2023-02-01T01:00:00.215Z,91.1
2023-02-01T01:05:00.115Z,90.8
2023-02-01T01:10:00.132Z,90.6
2023-02-01T01:15:00.109Z,90.4
2023-02-01T01:20:00.215Z,90.2
2023-02-01T01:25:00.106Z,90.1
2023-02-01T01:30:00.131Z,90
2023-02-01T01:35:00.117Z,90
2023-02-01T01:40:00.142Z,90
2023-02-01T01:45:00.115Z,90
2023-02-01T01:50:00.107Z,90.1
2023-02-01T01:55:00.121Z,90.1
2023-02-01T02:00:00.210Z,90.1
2023-02-01T02:05:00.098Z,90.1
2023-02-01T02:10:01.316Z,90.1
2023-02-01T02:15:00.141Z,89.9
2023-02-01T02:20:00.124Z,90.1
2023-02-01T02:25:00.099Z,90
2023-02-01T02:30:00.098Z,90
2023-02-01T02:35:00.108Z,89.9
2023-02-01T02:40:00.151Z,89.8
2023-02-01T02:45:00.115Z,89.5
2023-02-01T02:50:00.104Z,89.3
2023-02-01T02:55:00.116Z,89.1
2023-02-01T03:00:00.168Z,88.7
2023-02-01T03:05:00.093Z,88.4
2023-02-01T03:10:00.132Z,88.2
2023-02-01T03:15:00.117Z,88.1
2023-02-01T03:20:00.158Z,88
2023-02-01T03:25:00.100Z,87.9
2023-02-01T03:30:00.091Z,87.8
2023-02-01T03:35:00.116Z,87.5
2023-02-01T03:40:00.143Z,87.2
2023-02-01T03:45:00.096Z,86.9
2023-02-01T03:50:00.128Z,86.6
2023-02-01T03:55:00.112Z,86.2
2023-02-01T04:00:00.181Z,85.9
2023-02-01T04:05:00.106Z,85.8
2023-02-01T04:10:00.113Z,85.5
2023-02-01T04:15:00.116Z,84.7
2023-02-01T04:20:00.134Z,85.1
2023-02-01T04:25:00.113Z,84.7
2023-02-01T04:30:00.112Z,84.7
2023-02-01T04:35:00.144Z,84.7
2023-02-01T04:40:00.120Z,84.5
2023-02-01T04:45:00.101Z,84.5
2023-02-01T04:50:00.107Z,84.2
2023-02-01T04:55:00.124Z,84.3
2023-02-01T05:00:00.166Z,84.3
2023-02-01T05:05:00.195Z,84
2023-02-01T05:10:00.113Z,83.6
2023-02-01T05:15:00.123Z,83.7
2023-02-01T05:20:00.129Z,83.9
2023-02-01T05:25:00.097Z,83.9
2023-02-01T05:30:00.133Z,84.2
2023-02-01T05:35:00.101Z,84.5
2023-02-01T05:40:00.166Z,84.7
2023-02-01T05:45:00.106Z,85
2023-02-01T05:50:00.119Z,85.3
2023-02-01T05:55:00.136Z,85.6
2023-02-01T06:00:00.614Z,86
2023-02-01T06:05:00.113Z,86.5
2023-02-01T06:10:00.117Z,86.8
2023-02-01T06:15:00.121Z,87
2023-02-01T06:20:00.168Z,86.9
2023-02-01T06:25:00.131Z,86.7
2023-02-01T06:30:00.124Z,86.4
2023-02-01T06:35:00.121Z,86.2
2023-02-01T06:40:00.120Z,86
2023-02-01T06:45:00.123Z,86
2023-02-01T06:50:00.127Z,86
2023-02-01T06:55:00.140Z,86.2
2023-02-01T07:00:00.136Z,86.2
2023-02-01T07:05:00.107Z,86.2
2023-02-01T07:10:00.301Z,85.9
2023-02-01T07:15:00.099Z,85.7
2023-02-01T07:20:00.141Z,85.5
2023-02-01T07:25:00.116Z,85.2
2023-02-01T07:30:00.134Z,85
2023-02-01T07:35:00.116Z,84.7
2023-02-01T07:40:00.152Z,84.3
2023-02-01T07:45:11.163Z,83.6
2023-02-01T07:50:00.113Z,83.3
2023-02-01T07:55:00.102Z,83.2
2023-02-01T08:00:00.166Z,82.8
2023-02-01T08:05:00.098Z,82.7
2023-02-01T08:10:00.127Z,82.5
2023-02-01T08:15:00.135Z,82.7
2023-02-01T08:20:00.156Z,82.7
2023-02-01T08:25:00.118Z,82.8
2023-02-01T08:30:00.152Z,83.2
2023-02-01T08:35:00.113Z,83.6
2023-02-01T08:40:00.211Z,84.5
2023-02-01T08:45:00.126Z,85
2023-02-01T08:50:00.145Z,86.1
2023-02-01T08:55:00.187Z,87.6
2023-02-01T09:00:00.283Z,88.9
2023-02-01T09:05:00.107Z,89.7
2023-02-01T09:10:00.170Z,90.3
2023-02-01T09:15:00.262Z,90.7
2023-02-01T09:20:00.193Z,90.9
2023-02-01T09:25:00.168Z,91.2
2023-02-01T09:30:00.160Z,91.4
2023-02-01T09:35:00.142Z,91.3
2023-02-01T09:40:00.154Z,91.1
2023-02-01T09:45:00.558Z,91.3
2023-02-01T09:50:00.147Z,91.3
2023-02-01T09:55:00.119Z,91.3
2023-02-01T10:00:00.181Z,90.7
2023-02-01T10:05:00.109Z,90.7
2023-02-01T10:10:00.122Z,90.3
2023-02-01T10:15:00.175Z,90.1
2023-02-01T10:20:00.150Z,89.8
2023-02-01T10:25:00.095Z,89.2
2023-02-01T10:30:00.132Z,88.7
2023-02-01T10:35:00.123Z,88.3
2023-02-01T10:40:00.277Z,87.9
2023-02-01T10:45:00.139Z,87.3
2023-02-01T10:50:00.134Z,86.6
2023-02-01T10:55:00.135Z,85.4
2023-02-01T11:00:00.158Z,84.4
2023-02-01T11:05:00.129Z,82.3
2023-02-01T11:10:00.127Z,82.3
2023-02-01T11:15:00.118Z,80.7
2023-02-01T11:20:00.186Z,76.7
2023-02-01T11:25:00.131Z,74.4
2023-02-01T11:30:00.174Z,74
2023-02-01T11:35:00.122Z,74.7
2023-02-01T11:40:00.161Z,75.9
2023-02-01T11:45:00.146Z,76.5
2023-02-01T11:50:00.120Z,76
2023-02-01T11:55:00.114Z,74.7
2023-02-01T12:00:00.193Z,75
2023-02-01T12:05:00.114Z,74.7
2023-02-01T12:10:00.129Z,74.9
2023-02-01T12:15:00.141Z,74.9
2023-02-01T12:20:00.144Z,75
2023-02-01T12:25:00.106Z,74.5
2023-02-01T12:30:00.110Z,73.7
2023-02-01T12:35:00.109Z,73.6
2023-02-01T12:40:00.243Z,73.7
2023-02-01T12:45:00.129Z,73.4
2023-02-01T12:50:00.134Z,72.4
2023-02-01T12:55:00.133Z,72.7
2023-02-01T13:00:00.160Z,71.8
2023-02-01T13:05:00.152Z,71.8
2023-02-01T13:10:00.128Z,69.9
2023-02-01T13:15:00.123Z,68.2
2023-02-01T13:20:00.156Z,67.6
2023-02-01T13:25:00.116Z,68.1
2023-02-01T13:30:00.202Z,68.4
2023-02-01T13:35:00.110Z,69.1
2023-02-01T13:40:00.151Z,69.1
2023-02-01T13:45:00.145Z,68.9
2023-02-01T13:50:00.100Z,68.9
2023-02-01T13:55:00.102Z,68.3
2023-02-01T14:00:00.186Z,68.2
2023-02-01T14:05:00.123Z,68.5
2023-02-01T14:10:00.134Z,69.3
2023-02-01T14:15:00.105Z,69.9
2023-02-01T14:20:00.132Z,70.8
2023-02-01T14:25:00.101Z,71.4
2023-02-01T14:30:00.133Z,72
2023-02-01T14:35:00.139Z,72.5
2023-02-01T14:40:00.208Z,73
2023-02-01T14:45:00.230Z,73.1
2023-02-01T14:50:00.127Z,72.3
2023-02-01T14:55:00.132Z,72.6
2023-02-01T15:00:00.190Z,72.6
2023-02-01T15:05:00.122Z,72.6
2023-02-01T15:10:00.219Z,72.7
2023-02-01T15:15:00.101Z,73.4
2023-02-01T15:20:00.152Z,74.9
2023-02-01T15:25:00.110Z,75
2023-02-01T15:30:00.135Z,75.8
2023-02-01T15:35:00.115Z,75.5
2023-02-01T15:40:00.158Z,76.1
2023-02-01T15:45:00.109Z,77.1
2023-02-01T15:50:00.131Z,77.6
2023-02-01T15:55:00.131Z,77.7
2023-02-01T16:00:00.153Z,78.2
2023-02-01T16:05:00.150Z,79.1
2023-02-01T16:10:00.133Z,82.9
2023-02-01T16:15:00.137Z,83.5
2023-02-01T16:20:00.162Z,87.6
2023-02-01T16:25:00.117Z,90.6
2023-02-01T16:30:00.132Z,91.6
2023-02-01T16:35:00.130Z,92.2
2023-02-01T16:40:00.151Z,92.6
2023-02-01T16:45:00.171Z,92.8
2023-02-01T16:50:00.607Z,92.9
2023-02-01T16:55:00.128Z,92.9
2023-02-01T17:00:01.405Z,92.9
2023-02-01T17:05:00.191Z,93
2023-02-01T17:10:00.131Z,92.9
2023-02-01T17:15:00.110Z,92.8
2023-02-01T17:20:00.211Z,92.8
2023-02-01T17:25:00.119Z,92.8
2023-02-01T17:30:00.170Z,92.7
2023-02-01T17:35:00.104Z,92.7
2023-02-01T17:40:00.390Z,92.7
2023-02-01T17:45:00.135Z,92.8
2023-02-01T17:50:00.213Z,92.9
2023-02-01T17:55:00.097Z,93
2023-02-01T18:00:00.129Z,93.1
2023-02-01T18:05:00.159Z,93.1
2023-02-01T18:10:00.099Z,93.1
2023-02-01T18:15:00.140Z,92.9
2023-02-01T18:20:00.143Z,93.1
2023-02-01T18:25:00.112Z,93.2
2023-02-01T18:30:00.129Z,93.3
2023-02-01T18:35:01.455Z,93.4
2023-02-01T18:40:00.125Z,93.4
2023-02-01T18:45:00.117Z,93.5
2023-02-01T18:50:00.137Z,93.6
2023-02-01T18:55:00.535Z,93.6
2023-02-01T19:00:00.179Z,93.8
2023-02-01T19:05:00.148Z,93.8
2023-02-01T19:10:00.115Z,93.8
2023-02-01T19:15:00.128Z,93.7
2023-02-01T19:20:00.147Z,93.6
2023-02-01T19:25:00.106Z,93.7
2023-02-01T19:30:00.124Z,93.7
2023-02-01T19:35:00.119Z,93.6
2023-02-01T19:40:00.185Z,93.3
2023-02-01T19:45:00.114Z,93
2023-02-01T19:50:00.163Z,92.8
2023-02-01T19:55:00.109Z,92.7
2023-02-01T20:00:00.163Z,92.6
2023-02-01T20:04:59.285Z,92.6
2023-02-01T20:09:59.268Z,92.5
2023-02-01T20:14:59.270Z,92.3
2023-02-01T20:19:59.355Z,92.2
2023-02-01T20:24:59.277Z,92
2023-02-01T20:30:00.169Z,91.9
2023-02-01T20:35:00.164Z,91.8
2023-02-01T20:40:00.145Z,91.8
2023-02-01T20:45:00.142Z,91.9
2023-02-01T20:50:00.175Z,92.1
2023-02-01T20:55:00.137Z,92.2
2023-02-01T21:00:00.197Z,92.3
2023-02-01T21:05:00.177Z,92.4
2023-02-01T21:10:00.178Z,92.5
2023-02-01T21:15:00.176Z,92.7
2023-02-01T21:20:00.187Z,92.9
2023-02-01T21:25:01.944Z,92.9
2023-02-01T21:30:00.177Z,93.1
2023-02-01T21:35:00.156Z,93.2
2023-02-01T21:40:00.203Z,93.2
2023-02-01T21:45:00.128Z,93.2
2023-02-01T21:50:00.172Z,93.1
2023-02-01T21:55:00.183Z,93
2023-02-01T22:00:00.211Z,93
2023-02-01T22:05:00.161Z,93
2023-02-01T22:10:00.180Z,93.1
2023-02-01T22:15:00.157Z,93.2
2023-02-01T22:20:00.217Z,93.1
2023-02-01T22:25:00.152Z,93
2023-02-01T22:30:00.190Z,92.9
2023-02-01T22:35:00.174Z,92.8
2023-02-01T22:40:00.184Z,92.9
2023-02-01T22:45:00.136Z,93
2023-02-01T22:50:00.153Z,93.2
2023-02-01T22:55:00.128Z,93.4
2023-02-01T23:00:00.189Z,93.5
2023-02-01T23:05:00.121Z,93.6
2023-02-01T23:10:00.132Z,93.5
2023-02-01T23:15:00.099Z,93.5
2023-02-01T23:20:00.148Z,93.2
2023-02-01T23:25:00.119Z,92.9
2023-02-01T23:30:00.118Z,92.7
2023-02-01T23:35:00.125Z,92
2023-02-01T23:40:00.137Z,92.4
2023-02-01T23:45:00.088Z,92.3
2023-02-01T23:50:00.152Z,92.2
2023-02-01T23:55:00.112Z,92
